sensor_id;sensor_type;location;lat;lon;timestamp;pressure;altitude;pressure_sealevel;temperature;humidity
61337;BME280;47212;41.326;2.104;2023-05-09T00:04:55;101813.81;;;19.76;65.00
61337;BME280;47212;41.326;2.104;2023-05-09T00:15:28;101819.34;;;19.76;64.99
61337;BME280;47212;41.326;2.104;2023-05-09T00:20:31;101807.25;;;19.71;64.59
61337;BME280;47212;41.326;2.104;2023-05-09T00:25:34;101811.72;;;19.67;64.60
61337;BME280;47212;41.326;2.104;2023-05-09T00:30:36;101814.25;;;19.64;64.52
61337;BME280;47212;41.326;2.104;2023-05-09T00:35:39;101802.97;;;19.60;64.31
61337;BME280;47212;41.326;2.104;2023-05-09T00:40:41;101809.38;;;19.56;64.40
61337;BME280;47212;41.326;2.104;2023-05-09T00:45:43;101804.47;;;19.53;64.40
61337;BME280;47212;41.326;2.104;2023-05-09T00:50:46;101819.13;;;19.48;64.33
61337;BME280;47212;41.326;2.104;2023-05-09T00:55:54;101808.69;;;19.45;64.16
61337;BME280;47212;41.326;2.104;2023-05-09T01:05:12;101810.69;;;19.39;64.05
61337;BME280;47212;41.326;2.104;2023-05-09T01:11:34;101798.59;;;19.35;63.91
61337;BME280;47212;41.326;2.104;2023-05-09T01:16:51;101796.72;;;19.31;63.94
61337;BME280;47212;41.326;2.104;2023-05-09T01:21:57;101782.97;;;19.26;63.92
61337;BME280;47212;41.326;2.104;2023-05-09T01:32:13;101764.31;;;19.18;63.77
61337;BME280;47212;41.326;2.104;2023-05-09T01:37:18;101775.13;;;19.14;63.87
61337;BME280;47212;41.326;2.104;2023-05-09T01:42:21;101777.13;;;19.08;63.95
61337;BME280;47212;41.326;2.104;2023-05-09T01:51:53;101767.22;;;19.02;63.64
61337;BME280;47212;41.326;2.104;2023-05-09T01:57:27;101760.66;;;18.98;63.72
61337;BME280;47212;41.326;2.104;2023-05-09T02:02:34;101754.06;;;18.94;63.82
61337;BME280;47212;41.326;2.104;2023-05-09T02:07:39;101741.16;;;18.90;63.54
61337;BME280;47212;41.326;2.104;2023-05-09T02:16:52;101753.97;;;18.81;63.59
61337;BME280;47212;41.326;2.104;2023-05-09T02:21:55;101754.53;;;18.77;63.70
61337;BME280;47212;41.326;2.104;2023-05-09T02:26:57;101751.56;;;18.74;63.61
61337;BME280;47212;41.326;2.104;2023-05-09T02:32:00;101746.91;;;18.69;63.66
61337;BME280;47212;41.326;2.104;2023-05-09T02:37:07;101749.16;;;18.67;63.78
61337;BME280;47212;41.326;2.104;2023-05-09T02:42:13;101758.00;;;18.64;63.61
61337;BME280;47212;41.326;2.104;2023-05-09T02:49:22;101758.31;;;18.58;63.72
61337;BME280;47212;41.326;2.104;2023-05-09T02:54:34;101750.63;;;18.55;63.79
61337;BME280;47212;41.326;2.104;2023-05-09T02:59:36;101762.53;;;18.50;63.72
61337;BME280;47212;41.326;2.104;2023-05-09T03:04:38;101757.88;;;18.45;63.81
61337;BME280;47212;41.326;2.104;2023-05-09T03:09:40;101759.06;;;18.39;64.07
61337;BME280;47212;41.326;2.104;2023-05-09T03:14:42;101752.47;;;18.35;63.99
61337;BME280;47212;41.326;2.104;2023-05-09T03:19:45;101751.41;;;18.31;64.09
61337;BME280;47212;41.326;2.104;2023-05-09T03:24:47;101731.59;;;18.29;64.24
61337;BME280;47212;41.326;2.104;2023-05-09T03:29:49;101703.78;;;18.26;64.15
61337;BME280;47212;41.326;2.104;2023-05-09T03:34:52;101693.88;;;18.25;64.30
61337;BME280;47212;41.326;2.104;2023-05-09T03:39:55;101707.94;;;18.23;64.23
61337;BME280;47212;41.326;2.104;2023-05-09T03:44:58;101700.22;;;18.20;64.36
61337;BME280;47212;41.326;2.104;2023-05-09T03:50:00;101707.97;;;18.18;64.34
61337;BME280;47212;41.326;2.104;2023-05-09T03:55:05;101709.34;;;18.15;64.21
61337;BME280;47212;41.326;2.104;2023-05-09T04:05:41;101713.56;;;18.08;64.26
61337;BME280;47212;41.326;2.104;2023-05-09T04:10:54;101704.75;;;18.06;64.33
61337;BME280;47212;41.326;2.104;2023-05-09T04:15:58;101705.06;;;18.04;64.43
61337;BME280;47212;41.326;2.104;2023-05-09T04:21:03;101710.84;;;18.03;64.25
61337;BME280;47212;41.326;2.104;2023-05-09T04:26:06;101713.91;;;18.01;64.25
61337;BME280;47212;41.326;2.104;2023-05-09T04:31:08;101708.69;;;18.00;63.99
61337;BME280;47212;41.326;2.104;2023-05-09T04:36:11;101722.75;;;17.98;63.89
61337;BME280;47212;41.326;2.104;2023-05-09T04:41:13;101716.16;;;17.94;63.71
61337;BME280;47212;41.326;2.104;2023-05-09T04:46:16;101723.06;;;17.92;63.52
61337;BME280;47212;41.326;2.104;2023-05-09T04:51:18;101723.34;;;17.90;63.61
61337;BME280;47212;41.326;2.104;2023-05-09T04:56:20;101725.81;;;17.92;63.79
61337;BME280;47212;41.326;2.104;2023-05-09T05:01:24;101721.13;;;17.92;63.35
61337;BME280;47212;41.326;2.104;2023-05-09T05:06:28;101713.41;;;17.94;63.39
61337;BME280;47212;41.326;2.104;2023-05-09T05:11:32;101710.59;;;17.99;63.24
61337;BME280;47212;41.326;2.104;2023-05-09T05:16:34;101694.84;;;18.05;63.18
61337;BME280;47212;41.326;2.104;2023-05-09T05:21:37;101700.31;;;18.10;63.09
61337;BME280;47212;41.326;2.104;2023-05-09T05:26:40;101689.25;;;18.15;62.88
61337;BME280;47212;41.326;2.104;2023-05-09T05:31:43;101690.31;;;18.19;62.65
61337;BME280;47212;41.326;2.104;2023-05-09T05:36:45;101691.94;;;18.25;62.79
61337;BME280;47212;41.326;2.104;2023-05-09T05:41:48;101716.69;;;18.30;62.71
61337;BME280;47212;41.326;2.104;2023-05-09T05:46:53;101713.88;;;18.35;62.49
61337;BME280;47212;41.326;2.104;2023-05-09T05:51:56;101699.81;;;18.37;62.44
61337;BME280;47212;41.326;2.104;2023-05-09T05:56:59;101679.41;;;18.38;62.39
61337;BME280;47212;41.326;2.104;2023-05-09T06:02:04;101689.56;;;18.42;62.51
61337;BME280;47212;41.326;2.104;2023-05-09T06:07:09;101674.88;;;18.47;62.54
61337;BME280;47212;41.326;2.104;2023-05-09T06:12:11;101658.00;;;18.54;62.11
61337;BME280;47212;41.326;2.104;2023-05-09T06:20:45;101657.56;;;18.70;61.77
61337;BME280;47212;41.326;2.104;2023-05-09T06:26:36;101648.56;;;18.84;61.83
61337;BME280;47212;41.326;2.104;2023-05-09T06:31:38;101631.03;;;18.93;61.20
61337;BME280;47212;41.326;2.104;2023-05-09T06:36:41;101635.00;;;19.06;61.50
61337;BME280;47212;41.326;2.104;2023-05-09T06:41:43;101646.38;;;19.23;61.21
61337;BME280;47212;41.326;2.104;2023-05-09T06:46:53;101643.97;;;19.35;60.73
61337;BME280;47212;41.326;2.104;2023-05-09T06:51:55;101652.28;;;19.54;60.12
61337;BME280;47212;41.326;2.104;2023-05-09T06:56:57;101634.47;;;19.79;59.74
61337;BME280;47212;41.326;2.104;2023-05-09T07:02:00;101615.00;;;20.03;58.91
61337;BME280;47212;41.326;2.104;2023-05-09T07:07:02;101636.22;;;20.35;58.43
61337;BME280;47212;41.326;2.104;2023-05-09T07:12:04;101665.75;;;20.67;57.90
61337;BME280;47212;41.326;2.104;2023-05-09T07:17:07;101666.88;;;20.93;57.44
61337;BME280;47212;41.326;2.104;2023-05-09T07:22:23;101672.38;;;21.21;57.22
61337;BME280;47212;41.326;2.104;2023-05-09T07:27:25;101675.41;;;21.47;56.77
61337;BME280;47212;41.326;2.104;2023-05-09T07:32:31;101678.31;;;21.64;55.76
61337;BME280;47212;41.326;2.104;2023-05-09T07:37:35;101655.22;;;21.69;55.80
61337;BME280;47212;41.326;2.104;2023-05-09T07:42:37;101651.06;;;21.80;55.28
61337;BME280;47212;41.326;2.104;2023-05-09T07:47:40;101647.41;;;21.93;55.15
61337;BME280;47212;41.326;2.104;2023-05-09T07:52:43;101656.34;;;22.12;53.83
61337;BME280;47212;41.326;2.104;2023-05-09T07:57:45;101657.09;;;22.35;52.61
61337;BME280;47212;41.326;2.104;2023-05-09T08:02:52;101652.19;;;22.63;51.95
61337;BME280;47212;41.326;2.104;2023-05-09T08:07:54;101667.28;;;22.88;52.12
61337;BME280;47212;41.326;2.104;2023-05-09T08:12:57;101640.06;;;23.07;51.05
61337;BME280;47212;41.326;2.104;2023-05-09T08:18:03;101629.28;;;23.14;50.46
61337;BME280;47212;41.326;2.104;2023-05-09T08:23:07;101620.78;;;23.11;49.93
61337;BME280;47212;41.326;2.104;2023-05-09T08:28:10;101631.06;;;23.10;50.94
61337;BME280;47212;41.326;2.104;2023-05-09T08:33:12;101647.06;;;23.13;53.14
61337;BME280;47212;41.326;2.104;2023-05-09T08:38:14;101647.41;;;23.03;57.16
61337;BME280;47212;41.326;2.104;2023-05-09T08:43:16;101651.56;;;22.75;58.92
61337;BME280;47212;41.326;2.104;2023-05-09T08:48:34;101638.72;;;22.48;61.67
61337;BME280;47212;41.326;2.104;2023-05-09T08:53:39;101638.28;;;22.23;63.75
61337;BME280;47212;41.326;2.104;2023-05-09T08:58:41;101633.66;;;22.10;66.05
61337;BME280;47212;41.326;2.104;2023-05-09T09:03:45;101613.28;;;22.15;68.24
61337;BME280;47212;41.326;2.104;2023-05-09T09:08:51;101608.38;;;22.12;69.53
61337;BME280;47212;41.326;2.104;2023-05-09T09:14:24;101621.94;;;22.13;71.58
61337;BME280;47212;41.326;2.104;2023-05-09T09:19:29;101617.34;;;22.09;69.86
61337;BME280;47212;41.326;2.104;2023-05-09T09:24:33;101629.25;;;22.09;69.98
61337;BME280;47212;41.326;2.104;2023-05-09T09:29:35;101618.19;;;22.18;69.06
61337;BME280;47212;41.326;2.104;2023-05-09T09:34:39;101618.84;;;22.15;67.78
61337;BME280;47212;41.326;2.104;2023-05-09T09:39:53;101616.03;;;22.06;67.19
61337;BME280;47212;41.326;2.104;2023-05-09T09:45:16;101601.44;;;22.01;68.42
61337;BME280;47212;41.326;2.104;2023-05-09T09:50:20;101597.16;;;22.17;67.07
61337;BME280;47212;41.326;2.104;2023-05-09T09:55:33;101602.16;;;22.46;66.76
61337;BME280;47212;41.326;2.104;2023-05-09T10:00:35;101578.66;;;22.43;67.38
61337;BME280;47212;41.326;2.104;2023-05-09T10:05:38;101579.22;;;22.63;67.85
61337;BME280;47212;41.326;2.104;2023-05-09T10:10:42;101576.28;;;22.68;67.45
61337;BME280;47212;41.326;2.104;2023-05-09T10:15:45;101585.72;;;22.58;68.20
61337;BME280;47212;41.326;2.104;2023-05-09T10:20:55;101592.75;;;22.64;68.64
61337;BME280;47212;41.326;2.104;2023-05-09T10:26:25;101590.38;;;22.40;70.76
61337;BME280;47212;41.326;2.104;2023-05-09T10:31:34;101585.75;;;22.18;70.49
61337;BME280;47212;41.326;2.104;2023-05-09T10:36:37;101582.19;;;22.27;70.11
61337;BME280;47212;41.326;2.104;2023-05-09T10:41:40;101570.16;;;22.40;69.69
61337;BME280;47212;41.326;2.104;2023-05-09T10:46:48;101555.16;;;22.49;69.54
61337;BME280;47212;41.326;2.104;2023-05-09T10:52:02;101557.56;;;22.34;71.99
61337;BME280;47212;41.326;2.104;2023-05-09T10:57:08;101541.06;;;22.29;71.71
61337;BME280;47212;41.326;2.104;2023-05-09T11:02:12;101540.78;;;22.39;71.12
61337;BME280;47212;41.326;2.104;2023-05-09T11:07:25;101534.56;;;22.33;72.81
61337;BME280;47212;41.326;2.104;2023-05-09T11:12:27;101522.78;;;22.19;72.96
61337;BME280;47212;41.326;2.104;2023-05-09T11:17:45;101514.28;;;22.15;74.70
61337;BME280;47212;41.326;2.104;2023-05-09T11:22:52;101517.97;;;22.02;74.55
61337;BME280;47212;41.326;2.104;2023-05-09T11:27:59;101531.75;;;22.24;72.88
61337;BME280;47212;41.326;2.104;2023-05-09T11:33:02;101523.00;;;22.00;71.81
61337;BME280;47212;41.326;2.104;2023-05-09T11:38:07;101528.88;;;21.99;73.29
61337;BME280;47212;41.326;2.104;2023-05-09T11:43:11;101514.75;;;22.09;73.16
61337;BME280;47212;41.326;2.104;2023-05-09T11:48:13;101504.47;;;22.09;73.41
61337;BME280;47212;41.326;2.104;2023-05-09T11:53:15;101498.84;;;21.92;73.82
61337;BME280;47212;41.326;2.104;2023-05-09T11:58:18;101492.84;;;21.99;74.40
61337;BME280;47212;41.326;2.104;2023-05-09T12:03:20;101483.88;;;22.02;74.55
61337;BME280;47212;41.326;2.104;2023-05-09T12:08:23;101483.28;;;22.13;74.47
61337;BME280;47212;41.326;2.104;2023-05-09T12:13:25;101468.63;;;22.21;73.90
61337;BME280;47212;41.326;2.104;2023-05-09T12:18:29;101470.94;;;22.54;72.82
61337;BME280;47212;41.326;2.104;2023-05-09T12:23:34;101453.69;;;22.74;71.07
61337;BME280;47212;41.326;2.104;2023-05-09T12:28:40;101459.72;;;22.76;70.47
61337;BME280;47212;41.326;2.104;2023-05-09T12:33:43;101457.44;;;22.78;71.67
61337;BME280;47212;41.326;2.104;2023-05-09T12:38:55;101479.81;;;22.73;72.23
61337;BME280;47212;41.326;2.104;2023-05-09T12:43:57;101458.09;;;22.58;72.68
61337;BME280;47212;41.326;2.104;2023-05-09T12:48:59;101449.41;;;22.51;72.46
61337;BME280;47212;41.326;2.104;2023-05-09T12:54:02;101429.53;;;22.66;71.23
61337;BME280;47212;41.326;2.104;2023-05-09T12:59:09;101436.06;;;22.87;70.45
61337;BME280;47212;41.326;2.104;2023-05-09T13:04:18;101436.72;;;22.84;71.67
61337;BME280;47212;41.326;2.104;2023-05-09T13:09:21;101450.09;;;22.56;71.83
61337;BME280;47212;41.326;2.104;2023-05-09T13:14:24;101451.69;;;22.49;72.52
61337;BME280;47212;41.326;2.104;2023-05-09T13:19:27;101472.56;;;22.38;71.42
61337;BME280;47212;41.326;2.104;2023-05-09T13:24:29;101443.50;;;22.27;72.52
61337;BME280;47212;41.326;2.104;2023-05-09T13:29:31;101457.03;;;22.19;71.93
61337;BME280;47212;41.326;2.104;2023-05-09T13:34:33;101444.31;;;22.18;65.12
61337;BME280;47212;41.326;2.104;2023-05-09T13:39:36;101442.84;;;22.21;64.23
61337;BME280;47212;41.326;2.104;2023-05-09T13:44:38;101453.94;;;22.12;66.03
61337;BME280;47212;41.326;2.104;2023-05-09T13:49:40;101429.47;;;22.14;67.66
61337;BME280;47212;41.326;2.104;2023-05-09T13:54:42;101421.00;;;22.37;68.53
61337;BME280;47212;41.326;2.104;2023-05-09T13:59:44;101428.19;;;22.38;68.67
61337;BME280;47212;41.326;2.104;2023-05-09T14:04:47;101415.63;;;22.23;71.98
61337;BME280;47212;41.326;2.104;2023-05-09T14:09:49;101428.34;;;22.24;72.86
61337;BME280;47212;41.326;2.104;2023-05-09T14:14:59;101410.72;;;22.20;73.30
61337;BME280;47212;41.326;2.104;2023-05-09T14:20:02;101400.75;;;22.10;73.37
61337;BME280;47212;41.326;2.104;2023-05-09T14:25:05;101395.81;;;21.99;74.57
61337;BME280;47212;41.326;2.104;2023-05-09T14:30:07;101394.41;;;22.10;74.08
61337;BME280;47212;41.326;2.104;2023-05-09T14:35:10;101391.78;;;22.22;72.77
61337;BME280;47212;41.326;2.104;2023-05-09T14:40:12;101415.28;;;22.16;72.59
61337;BME280;47212;41.326;2.104;2023-05-09T14:45:16;101382.81;;;22.16;71.89
61337;BME280;47212;41.326;2.104;2023-05-09T14:50:18;101364.88;;;22.31;70.24
61337;BME280;47212;41.326;2.104;2023-05-09T14:55:21;101376.31;;;22.30;70.58
61337;BME280;47212;41.326;2.104;2023-05-09T15:00:23;101368.63;;;22.27;70.57
61337;BME280;47212;41.326;2.104;2023-05-09T15:05:29;101368.63;;;22.35;70.26
61337;BME280;47212;41.326;2.104;2023-05-09T15:10:32;101355.09;;;22.34;70.33
61337;BME280;47212;41.326;2.104;2023-05-09T15:20:36;101354.13;;;22.12;70.99
61337;BME280;47212;41.326;2.104;2023-05-09T15:25:42;101340.25;;;22.04;72.72
61337;BME280;47212;41.326;2.104;2023-05-09T15:30:44;101369.94;;;22.03;73.00
61337;BME280;47212;41.326;2.104;2023-05-09T15:35:48;101369.94;;;22.03;73.84
61337;BME280;47212;41.326;2.104;2023-05-09T15:40:56;101365.66;;;21.97;74.37
61337;BME280;47212;41.326;2.104;2023-05-09T15:46:00;101353.91;;;21.91;74.68
61337;BME280;47212;41.326;2.104;2023-05-09T15:51:03;101367.72;;;21.74;75.91
61337;BME280;47212;41.326;2.104;2023-05-09T15:56:15;101359.50;;;21.52;76.99
61337;BME280;47212;41.326;2.104;2023-05-09T16:01:17;101348.84;;;21.37;77.67
61337;BME280;47212;41.326;2.104;2023-05-09T16:06:19;101370.28;;;21.22;79.16
61337;BME280;47212;41.326;2.104;2023-05-09T16:11:27;101379.66;;;21.13;79.85
61337;BME280;47212;41.326;2.104;2023-05-09T16:16:29;101381.59;;;21.12;79.77
61337;BME280;47212;41.326;2.104;2023-05-09T16:21:43;101379.97;;;21.11;80.64
61337;BME280;47212;41.326;2.104;2023-05-09T16:26:50;101386.31;;;21.12;80.94
61337;BME280;47212;41.326;2.104;2023-05-09T16:31:52;101389.41;;;21.10;81.79
61337;BME280;47212;41.326;2.104;2023-05-09T16:36:54;101393.94;;;21.06;82.46
61337;BME280;47212;41.326;2.104;2023-05-09T16:41:57;101395.59;;;21.07;83.05
61337;BME280;47212;41.326;2.104;2023-05-09T16:47:02;101400.13;;;21.03;83.54
61337;BME280;47212;41.326;2.104;2023-05-09T16:52:06;101402.22;;;20.97;83.27
61337;BME280;47212;41.326;2.104;2023-05-09T16:57:09;101397.31;;;20.94;83.96
61337;BME280;47212;41.326;2.104;2023-05-09T17:02:11;101407.06;;;20.92;84.49
61337;BME280;47212;41.326;2.104;2023-05-09T17:07:20;101413.72;;;20.91;84.81
61337;BME280;47212;41.326;2.104;2023-05-09T17:12:24;101426.13;;;20.93;84.96
61337;BME280;47212;41.326;2.104;2023-05-09T17:17:40;101433.78;;;20.96;85.22
61337;BME280;47212;41.326;2.104;2023-05-09T17:22:42;101440.94;;;20.97;85.19
61337;BME280;47212;41.326;2.104;2023-05-09T17:27:44;101458.56;;;21.02;85.53
61337;BME280;47212;41.326;2.104;2023-05-09T17:32:46;101470.81;;;21.09;85.67
61337;BME280;47212;41.326;2.104;2023-05-09T17:37:57;101460.00;;;20.99;85.79
61337;BME280;47212;41.326;2.104;2023-05-09T17:42:59;101463.47;;;21.05;85.25
61337;BME280;47212;41.326;2.104;2023-05-09T17:48:01;101482.72;;;21.10;85.22
61337;BME280;47212;41.326;2.104;2023-05-09T17:53:04;101487.75;;;21.08;85.49
61337;BME280;47212;41.326;2.104;2023-05-09T17:58:10;101494.53;;;21.02;85.44
61337;BME280;47212;41.326;2.104;2023-05-09T18:03:12;101505.63;;;21.02;85.69
61337;BME280;47212;41.326;2.104;2023-05-09T18:08:15;101512.28;;;21.01;85.88
61337;BME280;47212;41.326;2.104;2023-05-09T18:13:17;101524.59;;;20.94;86.57
61337;BME280;47212;41.326;2.104;2023-05-09T18:22:47;101540.84;;;20.74;88.18
61337;BME280;47212;41.326;2.104;2023-05-09T18:27:49;101557.44;;;20.74;88.86
61337;BME280;47212;41.326;2.104;2023-05-09T18:32:52;101571.59;;;20.72;89.07
61337;BME280;47212;41.326;2.104;2023-05-09T18:37:54;101588.19;;;20.72;89.15
61337;BME280;47212;41.326;2.104;2023-05-09T18:42:56;101580.09;;;20.76;89.16
61337;BME280;47212;41.326;2.104;2023-05-09T18:48:02;101578.94;;;20.77;89.70
61337;BME280;47212;41.326;2.104;2023-05-09T18:53:04;101574.03;;;20.74;89.40
61337;BME280;47212;41.326;2.104;2023-05-09T18:58:12;101593.72;;;20.72;89.68
61337;BME280;47212;41.326;2.104;2023-05-09T19:03:16;101605.41;;;20.69;89.27
61337;BME280;47212;41.326;2.104;2023-05-09T19:08:18;101593.31;;;20.65;88.97
61337;BME280;47212;41.326;2.104;2023-05-09T19:13:21;101569.38;;;20.47;85.97
61337;BME280;47212;41.326;2.104;2023-05-09T19:18:26;101582.78;;;20.40;81.97
61337;BME280;47212;41.326;2.104;2023-05-09T19:23:29;101593.31;;;20.38;80.19
61337;BME280;47212;41.326;2.104;2023-05-09T19:28:31;101578.97;;;20.35;77.89
61337;BME280;47212;41.326;2.104;2023-05-09T19:33:36;101576.94;;;20.27;77.13
61337;BME280;47212;41.326;2.104;2023-05-09T19:38:39;101588.59;;;20.24;78.12
61337;BME280;47212;41.326;2.104;2023-05-09T19:43:41;101609.69;;;20.20;79.01
61337;BME280;47212;41.326;2.104;2023-05-09T19:48:43;101624.63;;;20.19;79.16
61337;BME280;47212;41.326;2.104;2023-05-09T19:53:47;101639.78;;;20.22;79.99
61337;BME280;47212;41.326;2.104;2023-05-09T19:58:49;101636.91;;;20.13;79.59
61337;BME280;47212;41.326;2.104;2023-05-09T20:03:52;101660.03;;;20.03;80.05
61337;BME280;47212;41.326;2.104;2023-05-09T20:08:58;101657.66;;;19.97;80.67
61337;BME280;47212;41.326;2.104;2023-05-09T20:14:00;101652.50;;;19.90;80.53
61337;BME280;47212;41.326;2.104;2023-05-09T20:19:03;101659.44;;;19.88;80.80
61337;BME280;47212;41.326;2.104;2023-05-09T20:24:08;101656.56;;;19.79;80.62
61337;BME280;47212;41.326;2.104;2023-05-09T20:29:10;101653.59;;;19.76;80.68
61337;BME280;47212;41.326;2.104;2023-05-09T20:34:12;101670.75;;;19.72;80.60
61337;BME280;47212;41.326;2.104;2023-05-09T20:39:19;101675.63;;;19.62;80.76
61337;BME280;47212;41.326;2.104;2023-05-09T20:44:21;101673.09;;;19.65;80.82
61337;BME280;47212;41.326;2.104;2023-05-09T20:49:24;101689.13;;;19.63;79.99
61337;BME280;47212;41.326;2.104;2023-05-09T20:54:26;101686.91;;;19.65;79.75
61337;BME280;47212;41.326;2.104;2023-05-09T20:59:29;101691.31;;;19.66;79.29
61337;BME280;47212;41.326;2.104;2023-05-09T21:04:32;101691.22;;;19.71;79.54
61337;BME280;47212;41.326;2.104;2023-05-09T21:09:34;101705.16;;;19.80;79.24
61337;BME280;47212;41.326;2.104;2023-05-09T21:14:36;101721.34;;;19.87;78.64
61337;BME280;47212;41.326;2.104;2023-05-09T21:19:39;101715.75;;;19.92;78.24
61337;BME280;47212;41.326;2.104;2023-05-09T21:24:41;101723.69;;;19.98;78.08
61337;BME280;47212;41.326;2.104;2023-05-09T21:29:44;101726.16;;;20.00;76.98
61337;BME280;47212;41.326;2.104;2023-05-09T21:34:49;101724.50;;;19.99;76.56
61337;BME280;47212;41.326;2.104;2023-05-09T21:39:52;101722.25;;;20.01;76.71
61337;BME280;47212;41.326;2.104;2023-05-09T21:44:54;101727.19;;;20.04;75.92
61337;BME280;47212;41.326;2.104;2023-05-09T21:49:56;101733.00;;;20.02;75.31
61337;BME280;47212;41.326;2.104;2023-05-09T21:54:58;101736.06;;;20.01;75.08
61337;BME280;47212;41.326;2.104;2023-05-09T22:00:00;101751.53;;;20.02;75.01
61337;BME280;47212;41.326;2.104;2023-05-09T22:05:13;101751.75;;;20.06;74.76
61337;BME280;47212;41.326;2.104;2023-05-09T22:10:15;101740.47;;;20.02;73.16
61337;BME280;47212;41.326;2.104;2023-05-09T22:15:18;101742.50;;;19.96;73.36
61337;BME280;47212;41.326;2.104;2023-05-09T22:20:20;101727.31;;;19.94;73.22
61337;BME280;47212;41.326;2.104;2023-05-09T22:25:24;101731.22;;;19.93;72.92
61337;BME280;47212;41.326;2.104;2023-05-09T22:30:30;101727.91;;;19.91;72.44
61337;BME280;47212;41.326;2.104;2023-05-09T22:35:32;101728.75;;;19.91;72.66
61337;BME280;47212;41.326;2.104;2023-05-09T22:40:34;101719.34;;;19.92;72.48
61337;BME280;47212;41.326;2.104;2023-05-09T22:45:36;101733.00;;;19.84;72.40
61337;BME280;47212;41.326;2.104;2023-05-09T22:51:07;101726.53;;;19.75;72.96
61337;BME280;47212;41.326;2.104;2023-05-09T22:56:09;101730.41;;;19.73;73.49
61337;BME280;47212;41.326;2.104;2023-05-09T23:01:12;101734.00;;;19.74;74.08
61337;BME280;47212;41.326;2.104;2023-05-09T23:06:16;101729.28;;;19.75;74.12
61337;BME280;47212;41.326;2.104;2023-05-09T23:11:17;101733.69;;;19.76;74.52
61337;BME280;47212;41.326;2.104;2023-05-09T23:16:21;101721.31;;;19.73;74.68
61337;BME280;47212;41.326;2.104;2023-05-09T23:21:23;101713.75;;;19.79;74.89
61337;BME280;47212;41.326;2.104;2023-05-09T23:26:25;101710.69;;;19.80;74.94
61337;BME280;47212;41.326;2.104;2023-05-09T23:31:28;101705.38;;;19.84;75.17
61337;BME280;47212;41.326;2.104;2023-05-09T23:36:30;101708.66;;;19.86;75.14
61337;BME280;47212;41.326;2.104;2023-05-09T23:41:32;101706.41;;;19.88;75.43
61337;BME280;47212;41.326;2.104;2023-05-09T23:46:34;101700.59;;;19.89;75.33
61337;BME280;47212;41.326;2.104;2023-05-09T23:51:36;101696.50;;;19.87;75.32
61337;BME280;47212;41.326;2.104;2023-05-09T23:56:38;101695.38;;;19.88;75.17
